sensor_id;sensor_type;location;lat;lon;timestamp;pressure;altitude;pressure_sealevel;temperature;humidity
30935;BME280;51033;42.648;23.292;2022-09-25T00:02:12;94186.63;;;12.22;44.42
30935;BME280;51033;42.648;23.292;2022-09-25T00:04:37;94197.59;;;12.29;44.37
30935;BME280;51033;42.648;23.292;2022-09-25T00:07:02;94159.34;;;12.08;44.28
30935;BME280;51033;42.648;23.292;2022-09-25T00:09:28;94147.41;;;11.96;43.96
30935;BME280;51033;42.648;23.292;2022-09-25T00:11:53;94176.44;;;12.15;44.06
30935;BME280;51033;42.648;23.292;2022-09-25T00:14:19;94186.16;;;12.20;44.04
30935;BME280;51033;42.648;23.292;2022-09-25T00:16:44;94173.13;;;12.01;44.38
30935;BME280;51033;42.648;23.292;2022-09-25T00:19:19;94186.16;;;12.02;44.34
30935;BME280;51033;42.648;23.292;2022-09-25T00:22:03;94173.91;;;11.93;44.65
30935;BME280;51033;42.648;23.292;2022-09-25T00:24:29;94158.38;;;11.86;44.63
30935;BME280;51033;42.648;23.292;2022-09-25T00:26:56;94160.09;;;11.82;44.57
30935;BME280;51033;42.648;23.292;2022-09-25T00:29:21;94065.78;;;11.09;44.32
30935;BME280;51033;42.648;23.292;2022-09-25T00:31:47;94101.41;;;11.39;44.58
30935;BME280;51033;42.648;23.292;2022-09-25T00:34:12;94172.78;;;11.85;44.60
30935;BME280;51033;42.648;23.292;2022-09-25T00:36:37;94147.69;;;11.69;44.43
30935;BME280;51033;42.648;23.292;2022-09-25T00:39:03;94154.59;;;11.70;44.76
30935;BME280;51033;42.648;23.292;2022-09-25T00:41:30;94177.50;;;11.88;44.85
30935;BME280;51033;42.648;23.292;2022-09-25T00:43:57;94138.28;;;11.63;44.72
30935;BME280;51033;42.648;23.292;2022-09-25T00:49:01;94139.09;;;11.64;44.65
30935;BME280;51033;42.648;23.292;2022-09-25T00:51:35;94170.75;;;11.82;44.56
30935;BME280;51033;42.648;23.292;2022-09-25T00:54:05;94163.66;;;11.69;44.81
30935;BME280;51033;42.648;23.292;2022-09-25T00:56:36;94156.78;;;11.68;44.58
30935;BME280;51033;42.648;23.292;2022-09-25T00:59:03;94174.19;;;11.74;44.81
30935;BME280;51033;42.648;23.292;2022-09-25T01:01:28;94173.72;;;11.72;44.71
30935;BME280;51033;42.648;23.292;2022-09-25T01:03:54;94132.88;;;11.46;44.98
30935;BME280;51033;42.648;23.292;2022-09-25T01:06:21;94144.81;;;11.48;45.04
30935;BME280;51033;42.648;23.292;2022-09-25T01:08:48;94141.56;;;11.51;45.44
30935;BME280;51033;42.648;23.292;2022-09-25T01:11:15;94127.41;;;11.42;45.47
30935;BME280;51033;42.648;23.292;2022-09-25T01:13:40;94100.56;;;11.22;45.26
30935;BME280;51033;42.648;23.292;2022-09-25T01:16:32;94153.16;;;11.55;45.29
30935;BME280;51033;42.648;23.292;2022-09-25T01:24:42;94143.28;;;11.56;45.51
30935;BME280;51033;42.648;23.292;2022-09-25T01:29:50;94128.19;;;11.43;45.48
30935;BME280;51033;42.648;23.292;2022-09-25T01:35:34;94154.19;;;11.46;45.18
30935;BME280;51033;42.648;23.292;2022-09-25T01:38:25;94155.28;;;11.45;45.20
30935;BME280;51033;42.648;23.292;2022-09-25T01:43:26;94164.69;;;11.42;45.29
30935;BME280;51033;42.648;23.292;2022-09-25T01:45:59;94162.31;;;11.41;45.14
30935;BME280;51033;42.648;23.292;2022-09-25T01:48:26;94167.97;;;11.39;45.20
30935;BME280;51033;42.648;23.292;2022-09-25T01:51:09;94143.16;;;11.22;45.33
30935;BME280;51033;42.648;23.292;2022-09-25T01:53:44;94132.50;;;11.13;45.38
30935;BME280;51033;42.648;23.292;2022-09-25T01:56:22;94161.03;;;11.30;45.46
30935;BME280;51033;42.648;23.292;2022-09-25T01:59:04;94167.47;;;11.29;45.65
30935;BME280;51033;42.648;23.292;2022-09-25T02:01:34;94132.47;;;11.04;45.65
30935;BME280;51033;42.648;23.292;2022-09-25T02:04:08;94156.97;;;11.24;45.68
30935;BME280;51033;42.648;23.292;2022-09-25T02:06:34;94123.03;;;10.98;45.99
30935;BME280;51033;42.648;23.292;2022-09-25T02:09:06;94130.41;;;11.01;45.93
30935;BME280;51033;42.648;23.292;2022-09-25T02:11:41;94134.63;;;11.02;46.13
30935;BME280;51033;42.648;23.292;2022-09-25T02:14:26;94142.22;;;11.17;46.03
30935;BME280;51033;42.648;23.292;2022-09-25T02:16:55;94129.94;;;10.99;45.90
30935;BME280;51033;42.648;23.292;2022-09-25T02:19:23;94152.50;;;11.10;46.21
30935;BME280;51033;42.648;23.292;2022-09-25T02:22:10;94152.97;;;11.04;46.06
30935;BME280;51033;42.648;23.292;2022-09-25T02:24:47;94161.75;;;11.04;45.69
30935;BME280;51033;42.648;23.292;2022-09-25T02:27:15;94132.84;;;10.81;46.08
30935;BME280;51033;42.648;23.292;2022-09-25T02:29:42;94161.53;;;10.92;45.90
30935;BME280;51033;42.648;23.292;2022-09-25T02:32:11;94160.56;;;10.88;46.40
30935;BME280;51033;42.648;23.292;2022-09-25T02:34:37;94150.34;;;10.82;46.66
30935;BME280;51033;42.648;23.292;2022-09-25T02:37:12;94170.13;;;10.89;46.81
30935;BME280;51033;42.648;23.292;2022-09-25T02:39:39;94124.28;;;10.61;46.79
30935;BME280;51033;42.648;23.292;2022-09-25T02:50:26;94146.03;;;10.63;47.44
30935;BME280;51033;42.648;23.292;2022-09-25T02:55:39;94157.09;;;10.79;47.06
30935;BME280;51033;42.648;23.292;2022-09-25T02:58:45;94147.03;;;10.76;47.11
30935;BME280;51033;42.648;23.292;2022-09-25T03:01:14;94151.75;;;10.79;46.95
30935;BME280;51033;42.648;23.292;2022-09-25T03:03:43;94135.91;;;10.65;46.92
30935;BME280;51033;42.648;23.292;2022-09-25T03:06:10;94159.88;;;10.74;47.12
30935;BME280;51033;42.648;23.292;2022-09-25T03:08:37;94141.00;;;10.62;47.65
30935;BME280;51033;42.648;23.292;2022-09-25T03:11:11;94164.13;;;10.75;47.92
30935;BME280;51033;42.648;23.292;2022-09-25T03:13:37;94151.06;;;10.65;47.80
30935;BME280;51033;42.648;23.292;2022-09-25T03:18:37;94161.44;;;10.75;47.71
30935;BME280;51033;42.648;23.292;2022-09-25T03:21:03;94166.78;;;10.75;48.00
30935;BME280;51033;42.648;23.292;2022-09-25T03:23:29;94146.34;;;10.62;48.36
30935;BME280;51033;42.648;23.292;2022-09-25T03:25:55;94140.84;;;10.58;48.44
30935;BME280;51033;42.648;23.292;2022-09-25T03:28:21;94158.78;;;10.75;48.52
30935;BME280;51033;42.648;23.292;2022-09-25T03:31:01;94136.16;;;10.55;48.43
30935;BME280;51033;42.648;23.292;2022-09-25T03:33:41;94135.09;;;10.65;48.32
30935;BME280;51033;42.648;23.292;2022-09-25T03:36:13;94117.53;;;10.55;48.32
30935;BME280;51033;42.648;23.292;2022-09-25T03:38:39;94147.50;;;10.69;48.11
30935;BME280;51033;42.648;23.292;2022-09-25T03:41:09;94155.34;;;10.74;47.97
30935;BME280;51033;42.648;23.292;2022-09-25T03:43:36;94148.16;;;10.75;47.94
30935;BME280;51033;42.648;23.292;2022-09-25T03:46:03;94137.00;;;10.73;47.98
30935;BME280;51033;42.648;23.292;2022-09-25T03:48:29;94105.78;;;10.34;48.09
30935;BME280;51033;42.648;23.292;2022-09-25T03:50:55;94157.63;;;10.67;47.81
30935;BME280;51033;42.648;23.292;2022-09-25T03:53:21;94140.06;;;10.58;48.45
30935;BME280;51033;42.648;23.292;2022-09-25T03:55:47;94164.66;;;10.63;48.18
30935;BME280;51033;42.648;23.292;2022-09-25T03:58:14;94126.56;;;10.46;48.59
30935;BME280;51033;42.648;23.292;2022-09-25T04:00:40;94169.19;;;10.63;48.29
30935;BME280;51033;42.648;23.292;2022-09-25T04:03:06;94145.63;;;10.48;48.34
30935;BME280;51033;42.648;23.292;2022-09-25T04:05:31;94153.34;;;10.58;48.17
30935;BME280;51033;42.648;23.292;2022-09-25T04:07:56;94142.81;;;10.44;48.17
30935;BME280;51033;42.648;23.292;2022-09-25T04:10:22;94157.53;;;10.50;48.12
30935;BME280;51033;42.648;23.292;2022-09-25T04:12:48;94154.81;;;10.42;48.04
30935;BME280;51033;42.648;23.292;2022-09-25T04:15:19;94148.53;;;10.38;48.16
30935;BME280;51033;42.648;23.292;2022-09-25T04:17:47;94133.78;;;10.31;48.39
30935;BME280;51033;42.648;23.292;2022-09-25T04:20:13;94153.84;;;10.38;48.13
30935;BME280;51033;42.648;23.292;2022-09-25T04:22:38;94136.06;;;10.24;48.53
30935;BME280;51033;42.648;23.292;2022-09-25T04:25:04;94164.56;;;10.32;48.44
30935;BME280;51033;42.648;23.292;2022-09-25T04:27:29;94146.88;;;10.28;48.34
30935;BME280;51033;42.648;23.292;2022-09-25T04:29:56;94163.41;;;10.39;48.46
30935;BME280;51033;42.648;23.292;2022-09-25T04:32:22;94151.22;;;10.24;48.24
30935;BME280;51033;42.648;23.292;2022-09-25T04:35:06;94134.75;;;10.13;48.40
30935;BME280;51033;42.648;23.292;2022-09-25T04:37:31;94162.03;;;10.27;48.39
30935;BME280;51033;42.648;23.292;2022-09-25T04:39:57;94187.72;;;10.46;48.69
30935;BME280;51033;42.648;23.292;2022-09-25T04:42:23;94178.44;;;10.43;48.50
30935;BME280;51033;42.648;23.292;2022-09-25T04:44:51;94159.72;;;10.26;48.59
30935;BME280;51033;42.648;23.292;2022-09-25T04:47:17;94160.06;;;10.33;48.88
30935;BME280;51033;42.648;23.292;2022-09-25T04:49:43;94145.78;;;10.29;48.80
30935;BME280;51033;42.648;23.292;2022-09-25T04:52:11;94146.09;;;10.27;48.84
30935;BME280;51033;42.648;23.292;2022-09-25T04:54:37;94131.41;;;10.30;49.04
30935;BME280;51033;42.648;23.292;2022-09-25T04:57:02;94173.84;;;10.57;49.21
30935;BME280;51033;42.648;23.292;2022-09-25T04:59:30;94166.53;;;10.63;48.81
30935;BME280;51033;42.648;23.292;2022-09-25T05:01:58;94162.75;;;10.55;48.95
30935;BME280;51033;42.648;23.292;2022-09-25T05:04:24;94165.56;;;10.59;48.77
30935;BME280;51033;42.648;23.292;2022-09-25T05:06:49;94150.03;;;10.52;49.14
30935;BME280;51033;42.648;23.292;2022-09-25T05:09:16;94154.81;;;10.64;49.29
30935;BME280;51033;42.648;23.292;2022-09-25T05:11:41;94108.22;;;10.44;49.01
30935;BME280;51033;42.648;23.292;2022-09-25T05:14:07;94148.19;;;10.84;49.34
30935;BME280;51033;42.648;23.292;2022-09-25T05:16:33;94161.88;;;10.99;49.32
30935;BME280;51033;42.648;23.292;2022-09-25T05:18:58;94136.50;;;10.93;49.28
30935;BME280;51033;42.648;23.292;2022-09-25T05:21:24;94151.44;;;11.11;49.31
30935;BME280;51033;42.648;23.292;2022-09-25T05:23:49;94146.59;;;11.13;49.38
30935;BME280;51033;42.648;23.292;2022-09-25T05:26:15;94148.47;;;11.22;49.28
30935;BME280;51033;42.648;23.292;2022-09-25T05:28:40;94134.38;;;11.12;48.96
30935;BME280;51033;42.648;23.292;2022-09-25T05:31:06;94157.63;;;11.38;49.12
30935;BME280;51033;42.648;23.292;2022-09-25T05:33:33;94157.94;;;11.45;48.86
30935;BME280;51033;42.648;23.292;2022-09-25T05:36:03;94130.84;;;11.34;48.80
30935;BME280;51033;42.648;23.292;2022-09-25T05:38:31;94075.47;;;11.05;49.17
30935;BME280;51033;42.648;23.292;2022-09-25T05:41:00;94142.66;;;11.59;49.25
30935;BME280;51033;42.648;23.292;2022-09-25T05:43:27;94140.31;;;11.57;49.09
30935;BME280;51033;42.648;23.292;2022-09-25T05:45:53;94157.59;;;11.77;49.01
30935;BME280;51033;42.648;23.292;2022-09-25T05:48:19;94148.81;;;11.77;48.95
30935;BME280;51033;42.648;23.292;2022-09-25T05:50:53;94170.31;;;11.97;49.06
30935;BME280;51033;42.648;23.292;2022-09-25T05:53:19;94171.56;;;12.00;48.96
30935;BME280;51033;42.648;23.292;2022-09-25T05:55:55;94176.28;;;12.12;48.44
30935;BME280;51033;42.648;23.292;2022-09-25T05:58:25;94171.41;;;12.22;48.73
30935;BME280;51033;42.648;23.292;2022-09-25T06:00:51;94157.16;;;12.27;48.60
30935;BME280;51033;42.648;23.292;2022-09-25T06:03:17;94139.56;;;12.09;47.39
30935;BME280;51033;42.648;23.292;2022-09-25T06:05:43;94133.44;;;12.08;47.77
30935;BME280;51033;42.648;23.292;2022-09-25T06:08:10;94138.47;;;12.27;47.91
30935;BME280;51033;42.648;23.292;2022-09-25T06:10:37;94148.66;;;12.25;46.93
30935;BME280;51033;42.648;23.292;2022-09-25T06:13:03;94145.50;;;12.40;47.74
30935;BME280;51033;42.648;23.292;2022-09-25T06:15:36;94146.13;;;12.54;47.36
30935;BME280;51033;42.648;23.292;2022-09-25T06:18:03;94125.25;;;12.56;46.93
30935;BME280;51033;42.648;23.292;2022-09-25T06:20:28;94132.94;;;12.66;46.21
30935;BME280;51033;42.648;23.292;2022-09-25T06:22:55;94153.59;;;12.86;46.44
30935;BME280;51033;42.648;23.292;2022-09-25T06:25:22;94162.00;;;13.06;46.03
30935;BME280;51033;42.648;23.292;2022-09-25T06:27:58;94175.63;;;13.21;45.92
30935;BME280;51033;42.648;23.292;2022-09-25T06:30:29;94172.59;;;13.31;45.74
30935;BME280;51033;42.648;23.292;2022-09-25T06:33:08;94125.84;;;13.17;46.21
30935;BME280;51033;42.648;23.292;2022-09-25T06:35:43;94171.56;;;13.53;45.75
30935;BME280;51033;42.648;23.292;2022-09-25T06:38:10;94148.69;;;13.35;45.32
30935;BME280;51033;42.648;23.292;2022-09-25T06:40:36;94176.72;;;13.58;45.28
30935;BME280;51033;42.648;23.292;2022-09-25T06:43:07;94135.31;;;13.44;45.43
30935;BME280;51033;42.648;23.292;2022-09-25T06:45:34;94163.34;;;13.67;45.21
30935;BME280;51033;42.648;23.292;2022-09-25T06:48:05;94141.53;;;13.56;44.98
30935;BME280;51033;42.648;23.292;2022-09-25T06:53:02;94101.19;;;13.49;44.54
30935;BME280;51033;42.648;23.292;2022-09-25T06:55:28;94150.38;;;13.78;43.86
30935;BME280;51033;42.648;23.292;2022-09-25T06:57:56;94168.53;;;13.93;43.62
30935;BME280;51033;42.648;23.292;2022-09-25T07:00:22;94107.88;;;13.55;42.47
30935;BME280;51033;42.648;23.292;2022-09-25T07:02:47;94165.47;;;14.03;42.93
30935;BME280;51033;42.648;23.292;2022-09-25T07:05:32;94182.25;;;14.12;42.27
30935;BME280;51033;42.648;23.292;2022-09-25T07:07:57;94155.19;;;13.84;42.54
30935;BME280;51033;42.648;23.292;2022-09-25T07:10:23;94172.19;;;14.09;43.11
30935;BME280;51033;42.648;23.292;2022-09-25T07:12:48;94182.25;;;14.12;42.45
30935;BME280;51033;42.648;23.292;2022-09-25T07:15:14;94201.88;;;14.16;41.70
30935;BME280;51033;42.648;23.292;2022-09-25T07:17:43;94150.38;;;13.78;42.34
30935;BME280;51033;42.648;23.292;2022-09-25T07:20:09;94208.59;;;14.22;42.40
30935;BME280;51033;42.648;23.292;2022-09-25T07:22:37;94216.44;;;14.27;41.78
30935;BME280;51033;42.648;23.292;2022-09-25T07:25:03;94189.00;;;14.09;41.51
30935;BME280;51033;42.648;23.292;2022-09-25T07:27:29;94216.75;;;14.26;41.42
30935;BME280;51033;42.648;23.292;2022-09-25T07:29:55;94196.56;;;14.28;41.66
30935;BME280;51033;42.648;23.292;2022-09-25T07:32:20;94190.59;;;14.31;42.03
30935;BME280;51033;42.648;23.292;2022-09-25T07:34:46;94205.38;;;14.49;41.99
30935;BME280;51033;42.648;23.292;2022-09-25T07:37:14;94194.97;;;14.56;41.26
30935;BME280;51033;42.648;23.292;2022-09-25T07:39:39;94192.53;;;14.64;41.47
30935;BME280;51033;42.648;23.292;2022-09-25T07:42:05;94135.91;;;14.41;41.46
30935;BME280;51033;42.648;23.292;2022-09-25T07:44:31;94155.75;;;14.60;41.54
30935;BME280;51033;42.648;23.292;2022-09-25T07:46:56;94164.34;;;14.66;40.25
30935;BME280;51033;42.648;23.292;2022-09-25T07:49:21;94169.84;;;14.82;40.86
30935;BME280;51033;42.648;23.292;2022-09-25T07:51:47;94147.72;;;14.73;40.69
30935;BME280;51033;42.648;23.292;2022-09-25T07:54:12;94141.47;;;14.69;41.03
30935;BME280;51033;42.648;23.292;2022-09-25T07:56:37;94145.31;;;14.80;41.06
30935;BME280;51033;42.648;23.292;2022-09-25T07:59:03;94128.66;;;14.74;40.88
30935;BME280;51033;42.648;23.292;2022-09-25T08:01:28;94138.63;;;14.86;40.78
30935;BME280;51033;42.648;23.292;2022-09-25T08:03:54;94133.72;;;14.88;40.81
30935;BME280;51033;42.648;23.292;2022-09-25T08:06:19;94148.69;;;15.01;39.68
30935;BME280;51033;42.648;23.292;2022-09-25T08:08:44;94167.47;;;15.13;39.45
30935;BME280;51033;42.648;23.292;2022-09-25T08:11:13;94168.34;;;15.17;40.13
30935;BME280;51033;42.648;23.292;2022-09-25T08:13:40;94158.88;;;15.20;40.20
30935;BME280;51033;42.648;23.292;2022-09-25T08:16:14;94102.69;;;14.87;40.64
30935;BME280;51033;42.648;23.292;2022-09-25T08:18:40;94153.41;;;15.28;40.41
30935;BME280;51033;42.648;23.292;2022-09-25T08:21:07;94148.06;;;15.28;40.90
30935;BME280;51033;42.648;23.292;2022-09-25T08:23:33;94131.09;;;15.24;40.93
30935;BME280;51033;42.648;23.292;2022-09-25T08:25:59;94137.00;;;15.42;40.08
30935;BME280;51033;42.648;23.292;2022-09-25T08:28:26;94131.00;;;15.45;38.85
30935;BME280;51033;42.648;23.292;2022-09-25T08:30:52;94095.16;;;15.25;38.78
30935;BME280;51033;42.648;23.292;2022-09-25T08:33:18;94120.41;;;15.49;39.10
30935;BME280;51033;42.648;23.292;2022-09-25T08:35:56;94115.03;;;15.49;39.44
30935;BME280;51033;42.648;23.292;2022-09-25T08:38:22;94110.47;;;15.49;39.16
30935;BME280;51033;42.648;23.292;2022-09-25T08:44:00;94140.94;;;15.69;38.59
30935;BME280;51033;42.648;23.292;2022-09-25T08:46:41;94119.25;;;15.62;39.39
30935;BME280;51033;42.648;23.292;2022-09-25T08:49:32;94072.34;;;15.31;38.71
30935;BME280;51033;42.648;23.292;2022-09-25T08:52:02;94103.75;;;15.55;38.32
30935;BME280;51033;42.648;23.292;2022-09-25T08:54:30;94114.78;;;15.66;37.97
30935;BME280;51033;42.648;23.292;2022-09-25T08:57:23;94112.75;;;15.75;38.03
30935;BME280;51033;42.648;23.292;2022-09-25T08:59:50;94098.38;;;15.67;38.13
30935;BME280;51033;42.648;23.292;2022-09-25T09:02:22;94123.03;;;15.85;37.90
30935;BME280;51033;42.648;23.292;2022-09-25T09:04:56;94088.84;;;15.70;38.29
30935;BME280;51033;42.648;23.292;2022-09-25T09:07:35;94109.38;;;15.90;38.30
30935;BME280;51033;42.648;23.292;2022-09-25T09:12:50;94115.38;;;16.11;36.83
30935;BME280;51033;42.648;23.292;2022-09-25T09:15:33;94103.63;;;16.16;36.69
30935;BME280;51033;42.648;23.292;2022-09-25T09:18:08;94087.84;;;16.14;36.75
30935;BME280;51033;42.648;23.292;2022-09-25T09:20:51;94076.94;;;16.07;36.05
30935;BME280;51033;42.648;23.292;2022-09-25T09:23:19;94076.06;;;16.03;36.35
30935;BME280;51033;42.648;23.292;2022-09-25T09:26:00;94088.94;;;16.25;36.24
30935;BME280;51033;42.648;23.292;2022-09-25T09:36:30;94089.34;;;16.40;35.75
30935;BME280;51033;42.648;23.292;2022-09-25T09:39:07;94066.44;;;16.30;35.94
30935;BME280;51033;42.648;23.292;2022-09-25T09:44:35;94061.31;;;16.53;35.37
30935;BME280;51033;42.648;23.292;2022-09-25T09:49:54;94079.09;;;16.57;36.08
30935;BME280;51033;42.648;23.292;2022-09-25T09:52:31;94062.00;;;16.50;35.76
30935;BME280;51033;42.648;23.292;2022-09-25T09:57:49;94075.75;;;16.76;35.48
30935;BME280;51033;42.648;23.292;2022-09-25T10:00:18;94063.34;;;16.71;35.69
30935;BME280;51033;42.648;23.292;2022-09-25T10:02:51;94049.66;;;16.61;33.90
30935;BME280;51033;42.648;23.292;2022-09-25T10:05:24;94055.44;;;16.63;34.30
30935;BME280;51033;42.648;23.292;2022-09-25T10:07:51;94057.88;;;16.68;34.58
30935;BME280;51033;42.648;23.292;2022-09-25T10:10:18;94039.84;;;16.53;34.23
30935;BME280;51033;42.648;23.292;2022-09-25T10:12:51;94054.50;;;16.71;35.00
30935;BME280;51033;42.648;23.292;2022-09-25T10:18:17;94062.81;;;16.97;34.24
30935;BME280;51033;42.648;23.292;2022-09-25T10:20:54;94044.00;;;16.97;33.90
30935;BME280;51033;42.648;23.292;2022-09-25T10:23:36;94042.56;;;17.00;33.94
30935;BME280;51033;42.648;23.292;2022-09-25T10:26:21;94044.00;;;16.97;34.24
30935;BME280;51033;42.648;23.292;2022-09-25T10:28:47;94028.69;;;16.98;34.31
30935;BME280;51033;42.648;23.292;2022-09-25T10:31:14;94021.84;;;17.00;33.63
30935;BME280;51033;42.648;23.292;2022-09-25T10:33:40;94039.91;;;17.15;37.43
30935;BME280;51033;42.648;23.292;2022-09-25T10:36:06;94021.22;;;17.07;34.00
30935;BME280;51033;42.648;23.292;2022-09-25T10:38:38;94035.53;;;17.27;33.92
30935;BME280;51033;42.648;23.292;2022-09-25T10:41:10;94005.31;;;17.14;33.59
30935;BME280;51033;42.648;23.292;2022-09-25T10:43:59;94035.44;;;17.39;34.34
30935;BME280;51033;42.648;23.292;2022-09-25T10:46:36;94035.69;;;17.34;35.71
30935;BME280;51033;42.648;23.292;2022-09-25T10:49:25;94033.81;;;17.18;35.49
30935;BME280;51033;42.648;23.292;2022-09-25T10:52:12;94004.03;;;17.11;33.86
30935;BME280;51033;42.648;23.292;2022-09-25T10:54:38;94012.69;;;17.36;33.53
30935;BME280;51033;42.648;23.292;2022-09-25T10:57:30;94026.44;;;17.50;36.39
30935;BME280;51033;42.648;23.292;2022-09-25T10:59:58;94009.81;;;17.26;35.41
30935;BME280;51033;42.648;23.292;2022-09-25T11:02:35;94000.75;;;17.34;34.30
30935;BME280;51033;42.648;23.292;2022-09-25T11:05:02;94013.09;;;17.54;33.71
30935;BME280;51033;42.648;23.292;2022-09-25T11:07:29;94008.56;;;17.58;33.45
30935;BME280;51033;42.648;23.292;2022-09-25T11:09:55;94017.09;;;17.79;33.88
30935;BME280;51033;42.648;23.292;2022-09-25T11:12:22;93981.13;;;17.68;33.64
30935;BME280;51033;42.648;23.292;2022-09-25T11:15:15;93998.28;;;17.98;33.21
30935;BME280;51033;42.648;23.292;2022-09-25T11:17:43;93998.75;;;18.04;34.13
30935;BME280;51033;42.648;23.292;2022-09-25T11:26:02;93963.09;;;18.07;33.52
30935;BME280;51033;42.648;23.292;2022-09-25T11:28:43;93998.66;;;18.39;32.65
30935;BME280;51033;42.648;23.292;2022-09-25T11:34:31;93981.25;;;18.56;32.44
30935;BME280;51033;42.648;23.292;2022-09-25T11:37:14;93959.66;;;18.52;32.35
30935;BME280;51033;42.648;23.292;2022-09-25T11:39:45;93988.00;;;18.69;34.24
30935;BME280;51033;42.648;23.292;2022-09-25T11:47:52;93968.75;;;18.89;31.66
30935;BME280;51033;42.648;23.292;2022-09-25T11:50:23;93946.25;;;18.78;31.54
30935;BME280;51033;42.648;23.292;2022-09-25T11:53:59;93955.81;;;18.99;33.71
30935;BME280;51033;42.648;23.292;2022-09-25T12:01:31;93949.19;;;19.19;30.74
30935;BME280;51033;42.648;23.292;2022-09-25T12:09:54;93936.72;;;19.37;30.77
30935;BME280;51033;42.648;23.292;2022-09-25T12:14:54;93930.00;;;19.50;30.65
30935;BME280;51033;42.648;23.292;2022-09-25T12:17:47;93929.31;;;19.60;29.93
30935;BME280;51033;42.648;23.292;2022-09-25T12:23:16;93927.97;;;19.73;29.43
30935;BME280;51033;42.648;23.292;2022-09-25T12:26:11;93923.00;;;19.79;29.44
30935;BME280;51033;42.648;23.292;2022-09-25T12:29:02;93916.88;;;19.82;29.24
30935;BME280;51033;42.648;23.292;2022-09-25T12:37:38;93894.59;;;19.89;28.94
30935;BME280;51033;42.648;23.292;2022-09-25T12:43:01;93890.00;;;19.93;30.20
30935;BME280;51033;42.648;23.292;2022-09-25T12:45:35;93898.59;;;20.05;28.78
30935;BME280;51033;42.648;23.292;2022-09-25T12:48:13;93904.13;;;20.16;31.34
30935;BME280;51033;42.648;23.292;2022-09-25T12:51:06;93892.66;;;20.26;29.29
30935;BME280;51033;42.648;23.292;2022-09-25T12:53:49;93846.53;;;20.05;28.22
30935;BME280;51033;42.648;23.292;2022-09-25T12:56:36;93868.00;;;20.28;28.04
30935;BME280;51033;42.648;23.292;2022-09-25T12:59:17;93877.03;;;20.46;28.10
30935;BME280;51033;42.648;23.292;2022-09-25T13:06:52;93853.50;;;20.50;27.53
30935;BME280;51033;42.648;23.292;2022-09-25T13:09:29;93818.66;;;20.34;27.95
30935;BME280;51033;42.648;23.292;2022-09-25T13:12:04;93833.13;;;20.59;27.88
30935;BME280;51033;42.648;23.292;2022-09-25T13:14:37;93859.09;;;20.75;30.98
30935;BME280;51033;42.648;23.292;2022-09-25T13:17:11;93859.00;;;20.60;29.19
30935;BME280;51033;42.648;23.292;2022-09-25T13:19:37;93849.44;;;20.74;27.85
30935;BME280;51033;42.648;23.292;2022-09-25T13:22:17;93821.19;;;20.64;27.04
30935;BME280;51033;42.648;23.292;2022-09-25T13:25:38;93849.88;;;20.83;28.24
30935;BME280;51033;42.648;23.292;2022-09-25T13:27:40;93854.88;;;20.81;28.90
30935;BME280;51033;42.648;23.292;2022-09-25T13:30:21;93791.81;;;20.59;26.85
30935;BME280;51033;42.648;23.292;2022-09-25T13:32:48;93838.38;;;20.89;26.77
30935;BME280;51033;42.648;23.292;2022-09-25T13:35:17;93840.28;;;20.89;26.33
30935;BME280;51033;42.648;23.292;2022-09-25T13:37:42;93855.03;;;20.98;27.16
30935;BME280;51033;42.648;23.292;2022-09-25T13:40:19;93817.50;;;20.90;27.61
30935;BME280;51033;42.648;23.292;2022-09-25T13:45:45;93813.00;;;21.12;28.69
30935;BME280;51033;42.648;23.292;2022-09-25T13:48:34;93826.97;;;21.24;28.32
30935;BME280;51033;42.648;23.292;2022-09-25T13:54:03;93808.44;;;21.30;27.94
30935;BME280;51033;42.648;23.292;2022-09-25T14:01:42;93813.91;;;21.44;28.71
30935;BME280;51033;42.648;23.292;2022-09-25T14:04:08;93815.03;;;21.39;29.58
30935;BME280;51033;42.648;23.292;2022-09-25T14:06:34;93810.38;;;21.29;28.10
30935;BME280;51033;42.648;23.292;2022-09-25T14:09:05;93781.34;;;21.19;29.27
30935;BME280;51033;42.648;23.292;2022-09-25T14:11:34;93810.03;;;21.45;29.70
30935;BME280;51033;42.648;23.292;2022-09-25T14:14:06;93803.03;;;21.26;28.55
30935;BME280;51033;42.648;23.292;2022-09-25T14:16:39;93803.06;;;21.40;29.78
30935;BME280;51033;42.648;23.292;2022-09-25T14:19:08;93800.75;;;21.39;28.05
30935;BME280;51033;42.648;23.292;2022-09-25T14:21:34;93804.53;;;21.17;28.87
30935;BME280;51033;42.648;23.292;2022-09-25T14:24:32;93818.06;;;21.24;28.77
30935;BME280;51033;42.648;23.292;2022-09-25T14:27:00;93812.72;;;21.34;29.71
30935;BME280;51033;42.648;23.292;2022-09-25T14:29:31;93815.38;;;21.24;29.07
30935;BME280;51033;42.648;23.292;2022-09-25T14:40:27;93824.41;;;21.60;29.79
30935;BME280;51033;42.648;23.292;2022-09-25T14:46:00;93810.81;;;21.53;28.93
30935;BME280;51033;42.648;23.292;2022-09-25T14:48:36;93809.22;;;21.34;28.29
30935;BME280;51033;42.648;23.292;2022-09-25T14:51:06;93786.75;;;21.19;28.48
30935;BME280;51033;42.648;23.292;2022-09-25T14:53:40;93816.13;;;21.24;29.18
30935;BME280;51033;42.648;23.292;2022-09-25T14:56:07;93810.66;;;21.10;31.40
30935;BME280;51033;42.648;23.292;2022-09-25T14:58:39;93800.53;;;20.89;29.51
30935;BME280;51033;42.648;23.292;2022-09-25T15:01:32;93812.00;;;20.79;29.63
30935;BME280;51033;42.648;23.292;2022-09-25T15:06:27;93821.00;;;20.87;30.88
30935;BME280;51033;42.648;23.292;2022-09-25T15:08:53;93796.50;;;20.69;30.17
30935;BME280;51033;42.648;23.292;2022-09-25T15:11:20;93791.88;;;20.70;28.41
30935;BME280;51033;42.648;23.292;2022-09-25T15:13:46;93782.56;;;20.56;28.85
30935;BME280;51033;42.648;23.292;2022-09-25T15:16:24;93806.19;;;20.74;29.90
30935;BME280;51033;42.648;23.292;2022-09-25T15:21:42;93814.72;;;20.76;32.31